sensor_id;sensor_type;location;lat;lon;timestamp;pressure;altitude;pressure_sealevel;temperature;humidity
56006;BME280;41888;44.696;10.522;2023-10-08T00:02:27;101149.16;;;18.06;100.00
56006;BME280;41888;44.696;10.522;2023-10-08T00:04:54;101146.56;;;17.99;100.00
56006;BME280;41888;44.696;10.522;2023-10-08T00:07:24;101146.47;;;17.94;100.00
56006;BME280;41888;44.696;10.522;2023-10-08T00:09:51;101143.66;;;17.89;100.00
56006;BME280;41888;44.696;10.522;2023-10-08T00:12:18;101152.22;;;17.86;100.00
56006;BME280;41888;44.696;10.522;2023-10-08T00:14:45;101149.16;;;17.83;100.00
56006;BME280;41888;44.696;10.522;2023-10-08T00:17:16;101148.34;;;17.82;100.00
56006;BME280;41888;44.696;10.522;2023-10-08T00:19:43;101146.84;;;17.75;100.00
56006;BME280;41888;44.696;10.522;2023-10-08T00:22:12;101141.56;;;17.68;100.00
56006;BME280;41888;44.696;10.522;2023-10-08T00:24:40;101143.44;;;17.79;100.00
56006;BME280;41888;44.696;10.522;2023-10-08T00:27:09;101134.53;;;17.79;100.00
56006;BME280;41888;44.696;10.522;2023-10-08T00:29:36;101125.75;;;17.83;100.00
56006;BME280;41888;44.696;10.522;2023-10-08T00:32:06;101135.72;;;17.71;100.00
56006;BME280;41888;44.696;10.522;2023-10-08T00:34:38;101137.81;;;17.69;100.00
56006;BME280;41888;44.696;10.522;2023-10-08T00:37:08;101136.91;;;17.75;100.00
56006;BME280;41888;44.696;10.522;2023-10-08T00:39:36;101134.31;;;17.80;100.00
56006;BME280;41888;44.696;10.522;2023-10-08T00:42:04;101130.81;;;17.68;100.00
56006;BME280;41888;44.696;10.522;2023-10-08T00:44:32;101137.72;;;17.76;100.00
56006;BME280;41888;44.696;10.522;2023-10-08T00:47:04;101143.66;;;17.66;100.00
56006;BME280;41888;44.696;10.522;2023-10-08T00:49:32;101136.66;;;17.65;100.00
56006;BME280;41888;44.696;10.522;2023-10-08T00:52:10;101130.41;;;17.53;100.00
56006;BME280;41888;44.696;10.522;2023-10-08T00:54:37;101137.66;;;17.52;100.00
56006;BME280;41888;44.696;10.522;2023-10-08T00:57:33;101130.09;;;17.61;100.00
56006;BME280;41888;44.696;10.522;2023-10-08T01:00:04;101132.06;;;17.54;100.00
56006;BME280;41888;44.696;10.522;2023-10-08T01:02:41;101124.25;;;17.64;100.00
56006;BME280;41888;44.696;10.522;2023-10-08T01:05:11;101128.91;;;17.57;100.00
56006;BME280;41888;44.696;10.522;2023-10-08T01:07:40;101120.25;;;17.66;100.00
56006;BME280;41888;44.696;10.522;2023-10-08T01:10:10;101123.41;;;17.52;100.00
56006;BME280;41888;44.696;10.522;2023-10-08T01:12:39;101125.63;;;17.55;100.00
56006;BME280;41888;44.696;10.522;2023-10-08T01:15:29;101120.59;;;17.47;100.00
56006;BME280;41888;44.696;10.522;2023-10-08T01:17:57;101124.09;;;17.59;100.00
56006;BME280;41888;44.696;10.522;2023-10-08T01:20:28;101124.81;;;17.54;100.00
56006;BME280;41888;44.696;10.522;2023-10-08T01:23:10;101126.09;;;17.52;100.00
56006;BME280;41888;44.696;10.522;2023-10-08T01:25:43;101125.41;;;17.45;100.00
56006;BME280;41888;44.696;10.522;2023-10-08T01:28:10;101119.53;;;17.48;100.00
56006;BME280;41888;44.696;10.522;2023-10-08T01:30:59;101127.25;;;17.56;100.00
56006;BME280;41888;44.696;10.522;2023-10-08T01:33:30;101118.72;;;17.47;100.00
56006;BME280;41888;44.696;10.522;2023-10-08T01:35:58;101119.88;;;17.51;100.00
56006;BME280;41888;44.696;10.522;2023-10-08T01:38:39;101114.63;;;17.45;100.00
56006;BME280;41888;44.696;10.522;2023-10-08T01:41:08;101121.28;;;17.42;100.00
56006;BME280;41888;44.696;10.522;2023-10-08T01:43:48;101119.41;;;17.43;100.00
56006;BME280;41888;44.696;10.522;2023-10-08T01:46:15;101124.19;;;17.41;100.00
56006;BME280;41888;44.696;10.522;2023-10-08T01:48:42;101121.75;;;17.39;100.00
56006;BME280;41888;44.696;10.522;2023-10-08T01:51:11;101118.00;;;17.40;100.00
56006;BME280;41888;44.696;10.522;2023-10-08T01:53:52;101114.03;;;17.31;100.00
56006;BME280;41888;44.696;10.522;2023-10-08T01:56:20;101108.03;;;17.29;100.00
56006;BME280;41888;44.696;10.522;2023-10-08T01:58:46;101112.38;;;17.30;100.00
56006;BME280;41888;44.696;10.522;2023-10-08T02:01:12;101112.03;;;17.26;100.00
56006;BME280;41888;44.696;10.522;2023-10-08T02:03:39;101109.34;;;17.26;100.00
56006;BME280;41888;44.696;10.522;2023-10-08T02:06:07;101096.38;;;17.23;100.00
56006;BME280;41888;44.696;10.522;2023-10-08T02:08:34;101096.13;;;17.25;100.00
56006;BME280;41888;44.696;10.522;2023-10-08T02:11:00;101087.34;;;17.29;100.00
56006;BME280;41888;44.696;10.522;2023-10-08T02:13:28;101100.09;;;17.22;100.00
56006;BME280;41888;44.696;10.522;2023-10-08T02:15:54;101096.63;;;17.34;100.00
56006;BME280;41888;44.696;10.522;2023-10-08T02:18:21;101086.06;;;17.20;100.00
56006;BME280;41888;44.696;10.522;2023-10-08T02:20:51;101089.81;;;17.31;100.00
56006;BME280;41888;44.696;10.522;2023-10-08T02:23:18;101092.28;;;17.33;100.00
56006;BME280;41888;44.696;10.522;2023-10-08T02:25:44;101087.72;;;17.33;100.00
56006;BME280;41888;44.696;10.522;2023-10-08T02:28:11;101086.09;;;17.44;100.00
56006;BME280;41888;44.696;10.522;2023-10-08T02:30:42;101092.41;;;17.38;100.00
56006;BME280;41888;44.696;10.522;2023-10-08T02:33:09;101089.22;;;17.41;100.00
56006;BME280;41888;44.696;10.522;2023-10-08T02:35:45;101086.41;;;17.36;100.00
56006;BME280;41888;44.696;10.522;2023-10-08T02:38:13;101093.22;;;17.38;100.00
56006;BME280;41888;44.696;10.522;2023-10-08T02:40:42;101085.47;;;17.30;100.00
56006;BME280;41888;44.696;10.522;2023-10-08T02:43:13;101089.59;;;17.33;100.00
56006;BME280;41888;44.696;10.522;2023-10-08T02:45:44;101094.38;;;17.42;100.00
56006;BME280;41888;44.696;10.522;2023-10-08T02:48:15;101087.94;;;17.31;100.00
56006;BME280;41888;44.696;10.522;2023-10-08T02:50:42;101087.81;;;17.26;100.00
56006;BME280;41888;44.696;10.522;2023-10-08T02:53:11;101092.28;;;17.33;100.00
56006;BME280;41888;44.696;10.522;2023-10-08T02:55:38;101088.19;;;17.42;100.00
56006;BME280;41888;44.696;10.522;2023-10-08T02:58:15;101090.78;;;17.48;100.00
56006;BME280;41888;44.696;10.522;2023-10-08T03:00:42;101093.13;;;17.45;100.00
56006;BME280;41888;44.696;10.522;2023-10-08T03:03:09;101084.91;;;17.40;100.00
56006;BME280;41888;44.696;10.522;2023-10-08T03:05:45;101091.34;;;17.50;100.00
56006;BME280;41888;44.696;10.522;2023-10-08T03:08:13;101085.50;;;17.53;100.00
56006;BME280;41888;44.696;10.522;2023-10-08T03:10:40;101091.81;;;17.36;100.00
56006;BME280;41888;44.696;10.522;2023-10-08T03:13:08;101089.59;;;17.33;100.00
56006;BME280;41888;44.696;10.522;2023-10-08T03:15:36;101095.91;;;17.26;100.00
56006;BME280;41888;44.696;10.522;2023-10-08T03:18:06;101087.22;;;17.24;100.00
56006;BME280;41888;44.696;10.522;2023-10-08T03:20:41;101084.19;;;17.21;100.00
56006;BME280;41888;44.696;10.522;2023-10-08T03:23:13;101079.41;;;17.11;100.00
56006;BME280;41888;44.696;10.522;2023-10-08T03:25:53;101086.28;;;17.07;100.00
56006;BME280;41888;44.696;10.522;2023-10-08T03:28:30;101086.28;;;17.07;100.00
56006;BME280;41888;44.696;10.522;2023-10-08T03:31:01;101083.13;;;17.10;100.00
56006;BME280;41888;44.696;10.522;2023-10-08T03:33:35;101078.91;;;16.91;100.00
56006;BME280;41888;44.696;10.522;2023-10-08T03:36:04;101079.09;;;16.78;100.00
56006;BME280;41888;44.696;10.522;2023-10-08T03:38:36;101076.09;;;16.86;100.00
56006;BME280;41888;44.696;10.522;2023-10-08T03:41:16;101076.91;;;16.98;100.00
56006;BME280;41888;44.696;10.522;2023-10-08T03:43:44;101077.59;;;16.94;100.00
56006;BME280;41888;44.696;10.522;2023-10-08T03:46:32;101076.47;;;17.01;100.00
56006;BME280;41888;44.696;10.522;2023-10-08T03:49:05;101079.16;;;17.01;100.00
56006;BME280;41888;44.696;10.522;2023-10-08T03:51:51;101074.34;;;17.03;100.00
56006;BME280;41888;44.696;10.522;2023-10-08T03:54:22;101076.72;;;17.11;100.00
56006;BME280;41888;44.696;10.522;2023-10-08T03:57:01;101083.84;;;17.17;100.00
56006;BME280;41888;44.696;10.522;2023-10-08T03:59:30;101090.72;;;17.13;100.00
56006;BME280;41888;44.696;10.522;2023-10-08T04:02:01;101081.25;;;17.11;100.00
56006;BME280;41888;44.696;10.522;2023-10-08T04:04:48;101086.41;;;17.12;100.00
56006;BME280;41888;44.696;10.522;2023-10-08T04:07:21;101077.53;;;17.23;100.00
56006;BME280;41888;44.696;10.522;2023-10-08T04:09:55;101074.59;;;17.13;100.00
56006;BME280;41888;44.696;10.522;2023-10-08T04:12:33;101070.41;;;17.17;100.00
56006;BME280;41888;44.696;10.522;2023-10-08T04:15:10;101074.25;;;17.21;100.00
56006;BME280;41888;44.696;10.522;2023-10-08T04:17:38;101078.47;;;17.17;100.00
56006;BME280;41888;44.696;10.522;2023-10-08T04:20:12;101077.75;;;17.10;100.00
56006;BME280;41888;44.696;10.522;2023-10-08T04:22:57;101075.88;;;17.11;100.00
56006;BME280;41888;44.696;10.522;2023-10-08T04:25:28;101078.78;;;16.86;100.00
56006;BME280;41888;44.696;10.522;2023-10-08T04:27:58;101081.19;;;16.76;100.00
56006;BME280;41888;44.696;10.522;2023-10-08T04:30:33;101089.25;;;16.76;100.00
56006;BME280;41888;44.696;10.522;2023-10-08T04:33:03;101081.59;;;16.61;100.00
56006;BME280;41888;44.696;10.522;2023-10-08T04:35:36;101078.09;;;16.61;100.00
56006;BME280;41888;44.696;10.522;2023-10-08T04:38:05;101080.91;;;16.66;100.00
56006;BME280;41888;44.696;10.522;2023-10-08T04:40:35;101082.41;;;16.62;100.00
56006;BME280;41888;44.696;10.522;2023-10-08T04:43:08;101082.03;;;16.58;100.00
56006;BME280;41888;44.696;10.522;2023-10-08T04:45:37;101080.34;;;16.64;100.00
56006;BME280;41888;44.696;10.522;2023-10-08T04:48:04;101070.47;;;16.58;100.00
56006;BME280;41888;44.696;10.522;2023-10-08T04:50:36;101075.00;;;16.57;100.00
56006;BME280;41888;44.696;10.522;2023-10-08T04:53:03;101074.97;;;16.64;100.00
56006;BME280;41888;44.696;10.522;2023-10-08T04:55:35;101080.94;;;16.77;100.00
56006;BME280;41888;44.696;10.522;2023-10-08T04:58:01;101071.03;;;16.78;100.00
56006;BME280;41888;44.696;10.522;2023-10-08T05:00:38;101075.22;;;16.74;100.00
56006;BME280;41888;44.696;10.522;2023-10-08T05:03:09;101072.41;;;16.69;100.00
56006;BME280;41888;44.696;10.522;2023-10-08T05:05:42;101074.19;;;16.57;100.00
56006;BME280;41888;44.696;10.522;2023-10-08T05:08:28;101079.91;;;16.48;100.00
56006;BME280;41888;44.696;10.522;2023-10-08T05:11:15;101075.34;;;16.49;100.00
56006;BME280;41888;44.696;10.522;2023-10-08T05:13:50;101071.84;;;16.48;100.00
56006;BME280;41888;44.696;10.522;2023-10-08T05:16:32;101072.06;;;16.47;100.00
56006;BME280;41888;44.696;10.522;2023-10-08T05:19:26;101065.03;;;16.46;100.00
56006;BME280;41888;44.696;10.522;2023-10-08T05:22:11;101063.44;;;16.57;100.00
56006;BME280;41888;44.696;10.522;2023-10-08T05:25:04;101071.66;;;16.62;100.00
56006;BME280;41888;44.696;10.522;2023-10-08T05:27:35;101068.59;;;16.58;100.00
56006;BME280;41888;44.696;10.522;2023-10-08T05:30:25;101065.25;;;16.44;100.00
56006;BME280;41888;44.696;10.522;2023-10-08T05:32:58;101067.88;;;16.51;100.00
56006;BME280;41888;44.696;10.522;2023-10-08T05:35:59;101064.50;;;16.56;100.00
56006;BME280;41888;44.696;10.522;2023-10-08T05:38:35;101068.28;;;16.66;100.00
56006;BME280;41888;44.696;10.522;2023-10-08T05:41:02;101066.13;;;16.75;100.00
56006;BME280;41888;44.696;10.522;2023-10-08T05:46:10;101064.34;;;16.51;100.00
56006;BME280;41888;44.696;10.522;2023-10-08T05:48:53;101067.03;;;16.51;100.00
56006;BME280;41888;44.696;10.522;2023-10-08T05:51:37;101071.59;;;16.68;100.00
56006;BME280;41888;44.696;10.522;2023-10-08T05:57:07;101075.28;;;16.97;100.00
56006;BME280;41888;44.696;10.522;2023-10-08T06:02:32;101083.22;;;18.08;100.00
56006;BME280;41888;44.696;10.522;2023-10-08T06:05:08;101075.91;;;19.06;100.00
56006;BME280;41888;44.696;10.522;2023-10-08T06:07:42;101087.41;;;19.51;100.00
56006;BME280;41888;44.696;10.522;2023-10-08T06:13:02;101094.91;;;20.48;100.00
56006;BME280;41888;44.696;10.522;2023-10-08T06:15:39;101095.59;;;20.60;100.00
56006;BME280;41888;44.696;10.522;2023-10-08T06:18:16;101097.81;;;20.68;100.00
56006;BME280;41888;44.696;10.522;2023-10-08T06:20:44;101100.06;;;21.03;100.00
56006;BME280;41888;44.696;10.522;2023-10-08T06:23:15;101110.44;;;21.90;100.00
56006;BME280;41888;44.696;10.522;2023-10-08T06:25:48;101111.50;;;22.31;100.00
56006;BME280;41888;44.696;10.522;2023-10-08T06:28:20;101106.97;;;22.62;100.00
56006;BME280;41888;44.696;10.522;2023-10-08T06:30:50;101109.19;;;23.05;100.00
56006;BME280;41888;44.696;10.522;2023-10-08T06:33:20;101111.94;;;23.21;99.13
56006;BME280;41888;44.696;10.522;2023-10-08T06:35:47;101112.19;;;22.84;100.00
56006;BME280;41888;44.696;10.522;2023-10-08T06:38:28;101114.09;;;23.03;99.82
56006;BME280;41888;44.696;10.522;2023-10-08T06:40:58;101115.91;;;22.62;100.00
56006;BME280;41888;44.696;10.522;2023-10-08T06:43:32;101114.81;;;22.68;100.00
56006;BME280;41888;44.696;10.522;2023-10-08T06:46:05;101124.63;;;22.02;100.00
56006;BME280;41888;44.696;10.522;2023-10-08T06:48:39;101119.03;;;21.72;100.00
56006;BME280;41888;44.696;10.522;2023-10-08T06:51:11;101118.81;;;21.83;100.00
56006;BME280;41888;44.696;10.522;2023-10-08T06:53:41;101121.78;;;21.40;100.00
56006;BME280;41888;44.696;10.522;2023-10-08T06:56:07;101111.38;;;21.27;100.00
56006;BME280;41888;44.696;10.522;2023-10-08T06:58:35;101114.91;;;21.27;100.00
56006;BME280;41888;44.696;10.522;2023-10-08T07:01:02;101118.59;;;21.53;100.00
56006;BME280;41888;44.696;10.522;2023-10-08T07:03:31;101127.69;;;21.74;100.00
56006;BME280;41888;44.696;10.522;2023-10-08T07:05:59;101133.16;;;21.84;100.00
56006;BME280;41888;44.696;10.522;2023-10-08T07:08:31;101134.88;;;21.95;100.00
56006;BME280;41888;44.696;10.522;2023-10-08T07:10:59;101139.56;;;22.05;100.00
56006;BME280;41888;44.696;10.522;2023-10-08T07:13:27;101141.53;;;22.24;100.00
56006;BME280;41888;44.696;10.522;2023-10-08T07:15:56;101143.22;;;22.36;100.00
56006;BME280;41888;44.696;10.522;2023-10-08T07:18:22;101142.22;;;22.00;100.00
56006;BME280;41888;44.696;10.522;2023-10-08T07:20:53;101143.00;;;21.58;100.00
56006;BME280;41888;44.696;10.522;2023-10-08T07:23:24;101142.69;;;21.49;100.00
56006;BME280;41888;44.696;10.522;2023-10-08T07:26:00;101148.22;;;21.65;100.00
56006;BME280;41888;44.696;10.522;2023-10-08T07:28:44;101152.16;;;21.89;100.00
56006;BME280;41888;44.696;10.522;2023-10-08T07:31:19;101157.16;;;22.02;100.00
56006;BME280;41888;44.696;10.522;2023-10-08T07:33:51;101160.75;;;22.18;100.00
56006;BME280;41888;44.696;10.522;2023-10-08T07:36:27;101166.06;;;22.55;100.00
56006;BME280;41888;44.696;10.522;2023-10-08T07:38:55;101160.41;;;22.66;99.20
56006;BME280;41888;44.696;10.522;2023-10-08T07:41:21;101167.56;;;22.93;96.92
56006;BME280;41888;44.696;10.522;2023-10-08T07:43:48;101162.97;;;23.19;92.41
56006;BME280;41888;44.696;10.522;2023-10-08T07:46:25;101169.47;;;23.38;90.55
56006;BME280;41888;44.696;10.522;2023-10-08T07:48:57;101157.56;;;23.54;88.18
56006;BME280;41888;44.696;10.522;2023-10-08T07:51:26;101159.19;;;23.55;87.17
56006;BME280;41888;44.696;10.522;2023-10-08T07:53:53;101160.25;;;23.74;85.02
56006;BME280;41888;44.696;10.522;2023-10-08T07:56:23;101158.59;;;23.88;85.18
56006;BME280;41888;44.696;10.522;2023-10-08T07:58:51;101159.63;;;24.18;82.64
56006;BME280;41888;44.696;10.522;2023-10-08T08:01:17;101156.56;;;24.34;80.92
56006;BME280;41888;44.696;10.522;2023-10-08T08:03:43;101152.94;;;24.54;79.80
56006;BME280;41888;44.696;10.522;2023-10-08T08:06:11;101146.94;;;24.62;78.35
56006;BME280;41888;44.696;10.522;2023-10-08T08:08:39;101140.84;;;24.75;77.93
56006;BME280;41888;44.696;10.522;2023-10-08T08:11:06;101142.72;;;24.85;77.27
56006;BME280;41888;44.696;10.522;2023-10-08T08:13:38;101146.69;;;25.03;76.41
56006;BME280;41888;44.696;10.522;2023-10-08T08:16:05;101145.47;;;25.19;75.56
56006;BME280;41888;44.696;10.522;2023-10-08T08:18:44;101159.59;;;25.26;75.23
56006;BME280;41888;44.696;10.522;2023-10-08T08:21:12;101157.22;;;25.48;74.17
56006;BME280;41888;44.696;10.522;2023-10-08T08:23:46;101167.91;;;25.74;74.27
56006;BME280;41888;44.696;10.522;2023-10-08T08:26:16;101167.63;;;25.75;72.71
56006;BME280;41888;44.696;10.522;2023-10-08T08:28:55;101168.84;;;25.88;72.78
56006;BME280;41888;44.696;10.522;2023-10-08T08:31:26;101161.56;;;26.07;71.75
56006;BME280;41888;44.696;10.522;2023-10-08T08:33:53;101169.72;;;26.55;69.69
56006;BME280;41888;44.696;10.522;2023-10-08T08:36:20;101170.84;;;26.96;68.69
56006;BME280;41888;44.696;10.522;2023-10-08T08:38:47;101171.91;;;27.33;67.63
56006;BME280;41888;44.696;10.522;2023-10-08T08:41:14;101163.09;;;27.54;66.12
56006;BME280;41888;44.696;10.522;2023-10-08T08:43:48;101159.75;;;27.71;64.74
56006;BME280;41888;44.696;10.522;2023-10-08T08:46:15;101161.09;;;27.87;64.99
56006;BME280;41888;44.696;10.522;2023-10-08T08:48:45;101160.94;;;28.38;63.50
56006;BME280;41888;44.696;10.522;2023-10-08T08:51:12;101168.63;;;28.50;63.76
56006;BME280;41888;44.696;10.522;2023-10-08T08:53:39;101160.09;;;28.51;62.45
56006;BME280;41888;44.696;10.522;2023-10-08T08:56:08;101161.69;;;28.66;62.41
56006;BME280;41888;44.696;10.522;2023-10-08T08:58:36;101160.69;;;28.98;62.10
56006;BME280;41888;44.696;10.522;2023-10-08T09:01:07;101160.41;;;29.22;60.25
56006;BME280;41888;44.696;10.522;2023-10-08T09:03:38;101162.38;;;29.30;60.63
56006;BME280;41888;44.696;10.522;2023-10-08T09:06:05;101161.53;;;29.65;59.01
56006;BME280;41888;44.696;10.522;2023-10-08T09:08:35;101157.97;;;29.96;57.73
56006;BME280;41888;44.696;10.522;2023-10-08T09:11:02;101154.13;;;30.53;55.36
56006;BME280;41888;44.696;10.522;2023-10-08T09:13:31;101152.53;;;30.70;52.39
56006;BME280;41888;44.696;10.522;2023-10-08T09:16:17;101165.13;;;30.79;52.49
56006;BME280;41888;44.696;10.522;2023-10-08T09:18:44;101152.16;;;31.49;49.43
56006;BME280;41888;44.696;10.522;2023-10-08T09:21:18;101156.72;;;31.62;48.85
56006;BME280;41888;44.696;10.522;2023-10-08T09:23:52;101153.09;;;32.16;47.00
56006;BME280;41888;44.696;10.522;2023-10-08T09:26:24;101150.94;;;32.51;44.84
56006;BME280;41888;44.696;10.522;2023-10-08T09:28:50;101153.13;;;32.87;43.67
56006;BME280;41888;44.696;10.522;2023-10-08T09:31:18;101154.22;;;33.61;42.25
56006;BME280;41888;44.696;10.522;2023-10-08T09:33:53;101154.94;;;33.37;42.79
56006;BME280;41888;44.696;10.522;2023-10-08T09:36:20;101145.28;;;34.00;41.33
56006;BME280;41888;44.696;10.522;2023-10-08T09:38:46;101140.78;;;32.64;43.42
56006;BME280;41888;44.696;10.522;2023-10-08T09:41:16;101145.84;;;33.24;43.31
56006;BME280;41888;44.696;10.522;2023-10-08T09:43:44;101139.91;;;34.04;41.54
56006;BME280;41888;44.696;10.522;2023-10-08T09:48:50;101134.47;;;34.44;39.98
56006;BME280;41888;44.696;10.522;2023-10-08T09:51:20;101140.44;;;34.98;39.58
56006;BME280;41888;44.696;10.522;2023-10-08T09:54:14;101142.84;;;34.71;39.17
56006;BME280;41888;44.696;10.522;2023-10-08T09:56:41;101145.75;;;34.91;38.87
56006;BME280;41888;44.696;10.522;2023-10-08T09:59:10;101152.50;;;35.05;38.95
56006;BME280;41888;44.696;10.522;2023-10-08T10:01:41;101134.34;;;35.64;37.72
56006;BME280;41888;44.696;10.522;2023-10-08T10:04:11;101134.91;;;35.85;36.91
56006;BME280;41888;44.696;10.522;2023-10-08T10:06:41;101131.63;;;35.08;37.67
56006;BME280;41888;44.696;10.522;2023-10-08T10:09:09;101130.38;;;35.33;38.13
56006;BME280;41888;44.696;10.522;2023-10-08T10:11:50;101130.28;;;35.02;37.89
56006;BME280;41888;44.696;10.522;2023-10-08T10:14:16;101129.88;;;35.75;37.27
56006;BME280;41888;44.696;10.522;2023-10-08T10:16:48;101128.03;;;35.79;37.17
56006;BME280;41888;44.696;10.522;2023-10-08T10:19:19;101125.34;;;35.67;36.73
56006;BME280;41888;44.696;10.522;2023-10-08T10:21:46;101121.47;;;35.55;37.33
56006;BME280;41888;44.696;10.522;2023-10-08T10:24:33;101122.81;;;35.62;36.58
56006;BME280;41888;44.696;10.522;2023-10-08T10:27:14;101118.25;;;36.51;34.87
56006;BME280;41888;44.696;10.522;2023-10-08T10:29:44;101124.34;;;36.41;34.90
56006;BME280;41888;44.696;10.522;2023-10-08T10:32:12;101123.75;;;36.86;34.09
56006;BME280;41888;44.696;10.522;2023-10-08T10:34:41;101120.50;;;36.46;34.43
56006;BME280;41888;44.696;10.522;2023-10-08T10:37:10;101114.66;;;36.51;34.08
56006;BME280;41888;44.696;10.522;2023-10-08T10:39:58;101115.13;;;36.02;34.52
56006;BME280;41888;44.696;10.522;2023-10-08T10:42:29;101113.53;;;35.85;34.67
56006;BME280;41888;44.696;10.522;2023-10-08T10:44:56;101111.28;;;35.91;34.59
56006;BME280;41888;44.696;10.522;2023-10-08T10:47:22;101100.03;;;35.99;34.69
56006;BME280;41888;44.696;10.522;2023-10-08T10:49:53;101093.56;;;36.27;34.64
56006;BME280;41888;44.696;10.522;2023-10-08T10:52:36;101098.34;;;36.65;33.52
56006;BME280;41888;44.696;10.522;2023-10-08T10:55:18;101090.44;;;36.13;34.05
56006;BME280;41888;44.696;10.522;2023-10-08T10:57:51;101088.28;;;36.76;33.25
56006;BME280;41888;44.696;10.522;2023-10-08T11:00:44;101085.09;;;36.04;33.86
56006;BME280;41888;44.696;10.522;2023-10-08T11:03:10;101085.38;;;35.99;33.86
56006;BME280;41888;44.696;10.522;2023-10-08T11:05:46;101073.81;;;36.13;33.20
56006;BME280;41888;44.696;10.522;2023-10-08T11:08:15;101073.75;;;36.83;32.27
56006;BME280;41888;44.696;10.522;2023-10-08T11:10:44;101059.28;;;36.16;33.13
56006;BME280;41888;44.696;10.522;2023-10-08T11:13:21;101064.09;;;36.19;33.28
56006;BME280;41888;44.696;10.522;2023-10-08T11:15:54;101059.59;;;35.64;33.96
56006;BME280;41888;44.696;10.522;2023-10-08T11:18:25;101056.53;;;36.00;33.53
56006;BME280;41888;44.696;10.522;2023-10-08T11:21:04;101055.28;;;35.66;33.63
56006;BME280;41888;44.696;10.522;2023-10-08T11:23:50;101043.41;;;35.81;33.71
56006;BME280;41888;44.696;10.522;2023-10-08T11:26:22;101052.22;;;35.68;34.10
56006;BME280;41888;44.696;10.522;2023-10-08T11:28:58;101046.28;;;35.53;34.63
56006;BME280;41888;44.696;10.522;2023-10-08T11:31:28;101037.56;;;35.20;35.03
56006;BME280;41888;44.696;10.522;2023-10-08T11:34:00;101043.59;;;35.10;35.07
56006;BME280;41888;44.696;10.522;2023-10-08T11:36:28;101048.97;;;35.34;35.21
56006;BME280;41888;44.696;10.522;2023-10-08T11:38:56;101044.00;;;34.96;35.14
56006;BME280;41888;44.696;10.522;2023-10-08T11:41:31;101042.50;;;34.99;35.05
56006;BME280;41888;44.696;10.522;2023-10-08T11:44:01;101033.91;;;35.32;34.23
56006;BME280;41888;44.696;10.522;2023-10-08T11:46:30;101029.50;;;35.15;35.31
56006;BME280;41888;44.696;10.522;2023-10-08T11:49:06;101026.06;;;34.34;36.18
56006;BME280;41888;44.696;10.522;2023-10-08T11:51:36;101027.88;;;34.70;35.69
56006;BME280;41888;44.696;10.522;2023-10-08T11:54:03;101027.09;;;34.70;35.63
56006;BME280;41888;44.696;10.522;2023-10-08T11:56:32;101025.31;;;34.50;36.26
56006;BME280;41888;44.696;10.522;2023-10-08T11:59:02;101014.25;;;34.10;36.67
56006;BME280;41888;44.696;10.522;2023-10-08T12:01:35;101006.09;;;33.52;37.56
56006;BME280;41888;44.696;10.522;2023-10-08T12:04:02;101002.66;;;33.31;37.62
56006;BME280;41888;44.696;10.522;2023-10-08T12:06:28;101001.38;;;33.17;38.45
56006;BME280;41888;44.696;10.522;2023-10-08T12:08:59;100991.09;;;33.05;38.26
56006;BME280;41888;44.696;10.522;2023-10-08T12:11:26;100996.34;;;33.43;38.12
56006;BME280;41888;44.696;10.522;2023-10-08T12:13:59;100989.09;;;33.50;37.38
56006;BME280;41888;44.696;10.522;2023-10-08T12:16:26;100983.34;;;33.43;37.27
56006;BME280;41888;44.696;10.522;2023-10-08T12:18:56;100983.81;;;33.45;37.81
56006;BME280;41888;44.696;10.522;2023-10-08T12:21:28;100974.03;;;33.48;37.52
56006;BME280;41888;44.696;10.522;2023-10-08T12:24:01;100974.47;;;33.14;37.13
56006;BME280;41888;44.696;10.522;2023-10-08T12:26:31;100961.00;;;33.12;37.88
56006;BME280;41888;44.696;10.522;2023-10-08T12:28:57;100964.09;;;33.10;38.02
56006;BME280;41888;44.696;10.522;2023-10-08T12:31:23;100959.88;;;32.35;38.67
56006;BME280;41888;44.696;10.522;2023-10-08T12:33:51;100961.31;;;32.53;38.09
56006;BME280;41888;44.696;10.522;2023-10-08T12:36:20;100959.03;;;32.88;38.14
56006;BME280;41888;44.696;10.522;2023-10-08T12:38:49;100954.31;;;32.77;38.04
56006;BME280;41888;44.696;10.522;2023-10-08T12:41:20;100954.53;;;32.18;39.47
56006;BME280;41888;44.696;10.522;2023-10-08T12:43:46;100953.97;;;31.54;41.62
56006;BME280;41888;44.696;10.522;2023-10-08T12:46:13;100947.31;;;31.55;41.85
56006;BME280;41888;44.696;10.522;2023-10-08T12:48:45;100944.69;;;31.67;42.34
56006;BME280;41888;44.696;10.522;2023-10-08T12:51:14;100953.97;;;31.83;41.48
56006;BME280;41888;44.696;10.522;2023-10-08T12:53:41;100948.41;;;32.12;40.02
56006;BME280;41888;44.696;10.522;2023-10-08T12:56:16;100943.41;;;32.14;39.73
56006;BME280;41888;44.696;10.522;2023-10-08T12:58:43;100937.72;;;31.90;39.55
56006;BME280;41888;44.696;10.522;2023-10-08T13:01:17;100936.91;;;31.90;39.58
56006;BME280;41888;44.696;10.522;2023-10-08T13:03:45;100927.03;;;31.88;40.11
56006;BME280;41888;44.696;10.522;2023-10-08T13:06:22;100923.56;;;32.21;39.61
56006;BME280;41888;44.696;10.522;2023-10-08T13:08:52;100925.66;;;32.24;39.86
56006;BME280;41888;44.696;10.522;2023-10-08T13:11:23;100923.56;;;32.54;39.08
56006;BME280;41888;44.696;10.522;2023-10-08T13:13:56;100920.66;;;32.71;38.83